Time;durP1;ratioP1;P1;durP2;ratioP2;P2;SDS_P1;SDS_P2;PMS_P1;PMS_P2;Temp;Humidity;BMP_temperature;BMP_pressure;BME280_temperature;BME280_humidity;BME280_pressure;Samples;Min_cycle;Max_cycle;Signal;HPM_P1;HPM_P2
2022/03/28 00:00:54;;;;;;;25.90;9.73;;;;;;;6.12;62.36;97459.25;2064981;28;20229;-67
2022/03/28 00:01:56;;;;;;;18.85;9.27;;;;;;;6.15;62.17;97456.50;2064006;28;20736;-66
2022/03/28 00:02:58;;;;;;;17.02;7.90;;;;;;;6.05;62.70;97456.00;2065487;28;20556;-67
2022/03/28 00:04:00;;;;;;;18.58;8.48;;;;;;;6.01;62.67;97457.03;2065635;28;20290;-66
2022/03/28 00:05:02;;;;;;;14.57;8.88;;;;;;;6.02;62.80;97455.25;2065261;28;20329;-67
2022/03/28 00:06:04;;;;;;;23.48;9.40;;;;;;;6.00;62.92;97451.88;2064698;28;20340;-67
2022/03/28 00:07:06;;;;;;;19.67;8.40;;;;;;;6.07;62.62;97461.16;2064324;28;20582;-67
2022/03/28 00:08:08;;;;;;;20.17;8.68;;;;;;;6.09;62.66;97457.59;2065650;28;20209;-67
2022/03/28 00:09:09;;;;;;;17.40;8.60;;;;;;;6.08;62.94;97453.31;2064800;28;20202;-67
2022/03/28 00:10:12;;;;;;;14.93;7.70;;;;;;;6.08;63.00;97458.50;2065386;28;20705;-67
2022/03/28 00:11:13;;;;;;;16.92;8.45;;;;;;;6.10;62.72;97448.06;2065075;28;20223;-67
2022/03/28 00:12:15;;;;;;;16.05;8.38;;;;;;;6.09;62.63;97447.19;2065548;28;20683;-67
2022/03/28 00:13:17;;;;;;;26.17;9.05;;;;;;;6.05;62.71;97442.16;2065618;28;20202;-67
2022/03/28 00:14:18;;;;;;;16.10;8.75;;;;;;;6.25;62.03;97442.28;2065190;28;20202;-67
2022/03/28 00:15:20;;;;;;;17.80;9.18;;;;;;;6.29;62.16;97445.59;2065370;28;20198;-66
2022/03/28 00:16:22;;;;;;;14.05;7.63;;;;;;;6.11;62.72;97440.16;2065361;28;20276;-68
2022/03/28 00:17:23;;;;;;;18.02;9.40;;;;;;;6.00;63.11;97444.94;2064802;28;20728;-67
2022/03/28 00:18:25;;;;;;;15.68;8.13;;;;;;;5.98;63.27;97446.75;2065726;28;20829;-67
2022/03/28 00:19:27;;;;;;;25.65;9.50;;;;;;;5.91;63.54;97432.25;2065600;28;20210;-68
2022/03/28 00:20:28;;;;;;;15.07;8.40;;;;;;;6.09;62.85;97438.53;2065185;28;20206;-67
2022/03/28 00:21:29;;;;;;;21.25;9.30;;;;;;;6.07;62.76;97433.38;2065544;28;20528;-67
2022/03/28 00:22:31;;;;;;;22.02;9.60;;;;;;;6.00;63.35;97446.69;2065191;28;20221;-67
2022/03/28 00:23:32;;;;;;;16.92;8.48;;;;;;;5.94;63.59;97445.97;2065809;28;20237;-67
2022/03/28 00:24:34;;;;;;;24.38;9.40;;;;;;;5.93;63.79;97446.03;2065527;28;20198;-67
2022/03/28 00:25:35;;;;;;;19.52;8.77;;;;;;;5.86;64.12;97440.22;2064968;28;20198;-67
2022/03/28 00:26:37;;;;;;;20.02;9.60;;;;;;;5.86;63.72;97440.22;2065622;28;20336;-67
2022/03/28 00:27:39;;;;;;;22.85;9.18;;;;;;;5.81;63.71;97442.13;2065619;28;20199;-67
2022/03/28 00:28:41;;;;;;;22.95;10.48;;;;;;;5.77;63.63;97439.72;2065173;28;20213;-67
2022/03/28 00:29:42;;;;;;;18.92;9.00;;;;;;;5.68;63.96;97430.47;2065588;28;20631;-66
2022/03/28 00:30:44;;;;;;;15.20;9.02;;;;;;;5.65;63.90;97433.19;2065145;28;20233;-67
2022/03/28 00:31:45;;;;;;;19.08;9.30;;;;;;;5.64;63.91;97434.09;2065594;28;20773;-67
2022/03/28 00:32:47;;;;;;;17.25;9.18;;;;;;;5.59;64.27;97423.88;2065580;28;20194;-68
2022/03/28 00:33:48;;;;;;;24.10;10.05;;;;;;;5.54;64.21;97426.63;2065554;28;20202;-68
2022/03/28 00:34:50;;;;;;;14.50;8.82;;;;;;;5.59;64.15;97431.66;2065523;28;20207;-68
2022/03/28 00:35:51;;;;;;;14.63;8.90;;;;;;;5.62;64.04;97426.34;2071874;28;20232;-67
2022/03/28 00:36:53;;;;;;;18.85;9.05;;;;;;;5.64;63.93;97421.94;2072976;28;20213;-68
2022/03/28 00:37:54;;;;;;;20.85;9.80;;;;;;;5.54;64.53;97420.56;2065255;28;20206;-67
2022/03/28 00:38:56;;;;;;;18.90;10.02;;;;;;;5.53;64.38;97421.50;2079192;28;20196;-67
2022/03/28 00:40:00;;;;;;;25.60;9.65;;;;;;;5.55;64.10;97425.72;2079821;28;20205;-68
2022/03/28 00:41:04;;;;;;;19.30;9.82;;;;;;;5.60;64.17;97419.50;2063737;28;20569;-68
2022/03/28 00:42:05;;;;;;;15.02;7.70;;;;;;;5.53;64.41;97418.91;2065464;28;20244;-68
2022/03/28 00:43:08;;;;;;;17.25;8.45;;;;;;;5.49;64.38;97419.91;2065457;28;20212;-67
2022/03/28 00:44:09;;;;;;;19.80;8.50;;;;;;;5.48;64.38;97423.41;2065431;28;20214;-67
2022/03/28 00:45:11;;;;;;;27.73;8.80;;;;;;;5.39;64.75;97418.50;2065151;28;20201;-67
2022/03/28 00:46:13;;;;;;;18.40;9.30;;;;;;;5.34;64.58;97416.94;2064639;28;20222;-67
2022/03/28 00:47:14;;;;;;;14.20;8.27;;;;;;;5.24;64.88;97419.91;2065385;28;20627;-68
2022/03/28 00:48:16;;;;;;;17.95;8.35;;;;;;;5.34;64.48;97411.72;2065147;28;20253;-68
2022/03/28 00:49:18;;;;;;;18.80;8.65;;;;;;;5.33;64.44;97404.84;2065009;28;20534;-68
2022/03/28 00:50:19;;;;;;;26.77;9.05;;;;;;;5.38;64.45;97411.63;2064964;28;20210;-65
2022/03/28 00:51:22;;;;;;;16.05;8.13;;;;;;;5.30;64.69;97409.31;2065460;28;20199;-67
2022/03/28 00:52:24;;;;;;;15.85;8.75;;;;;;;5.34;64.73;97408.28;2065004;28;20241;-68
2022/03/28 00:53:25;;;;;;;15.85;8.45;;;;;;;5.31;64.80;97403.19;2072878;28;20462;-68
2022/03/28 00:54:27;;;;;;;14.80;7.95;;;;;;;5.40;64.50;97405.47;2072350;28;20295;-68
2022/03/28 00:55:29;;;;;;;15.50;8.45;;;;;;;5.41;64.29;97403.72;2064232;28;20204;-68
2022/03/28 00:56:31;;;;;;;19.75;8.25;;;;;;;5.34;64.67;97410.88;2065431;28;20284;-67
2022/03/28 00:57:33;;;;;;;19.58;8.05;;;;;;;5.40;64.68;97409.84;2065051;28;20198;-68
2022/03/28 00:58:34;;;;;;;16.00;8.75;;;;;;;5.31;64.86;97411.84;2065435;28;20207;-67
2022/03/28 00:59:37;;;;;;;19.75;9.30;;;;;;;5.18;65.20;97412.34;2065287;28;20245;-67
2022/03/28 01:00:39;;;;;;;21.55;7.88;;;;;;;5.11;65.22;97409.06;2064735;28;20597;-67
2022/03/28 01:01:40;;;;;;;18.25;8.57;;;;;;;5.06;65.50;97408.41;2065185;28;20197;-67
2022/03/28 01:02:43;;;;;;;14.50;7.70;;;;;;;5.13;65.22;97412.47;2065388;28;20240;-67
2022/03/28 01:03:44;;;;;;;15.10;8.00;;;;;;;5.08;65.70;97406.59;2065354;28;20229;-67
2022/03/28 01:04:46;;;;;;;18.88;9.30;;;;;;;5.15;65.33;97411.53;2064496;28;20190;-68
2022/03/28 01:05:47;;;;;;;15.23;8.23;;;;;;;5.11;65.63;97411.69;2064763;28;20701;-68
2022/03/28 01:06:49;;;;;;;19.42;9.45;;;;;;;5.08;65.33;97407.44;2065209;28;20194;-68
2022/03/28 01:07:51;;;;;;;23.13;7.93;;;;;;;5.01;65.39;97405.09;2064321;28;20201;-68
2022/03/28 01:08:52;;;;;;;16.92;9.13;;;;;;;4.87;66.08;97409.00;2065282;28;20688;-67
2022/03/28 01:09:56;;;;;;;17.45;8.82;;;;;;;4.98;65.76;97397.41;2065132;28;20895;-67
2022/03/28 01:11:01;;;;;;;15.32;8.77;;;;;;;4.91;65.31;97386.41;2064586;28;20264;-67
2022/03/28 01:12:04;;;;;;;19.88;8.70;;;;;;;4.94;65.68;97397.53;2065282;28;20213;-68
2022/03/28 01:13:06;;;;;;;19.92;9.10;;;;;;;4.94;65.67;97397.53;2065186;28;20197;-67
2022/03/28 01:14:08;;;;;;;16.50;8.20;;;;;;;5.05;65.41;97385.94;2065186;28;20550;-67
2022/03/28 01:15:11;;;;;;;17.73;9.20;;;;;;;5.08;65.50;97396.22;2065175;28;20199;-67
2022/03/28 01:16:12;;;;;;;31.30;9.27;;;;;;;5.22;65.22;97396.59;2063259;28;20227;-67
2022/03/28 01:18:34;;;;;;;23.40;9.20;;;;;;;5.20;65.17;97395.78;2069720;28;20194;-67
2022/03/28 01:19:36;;;;;;;23.83;8.75;;;;;;;5.18;65.11;97389.81;2063398;28;20209;-67
2022/03/28 01:20:39;;;;;;;16.30;7.75;;;;;;;5.19;65.28;97396.69;2064689;28;20209;-67
2022/03/28 01:21:41;;;;;;;21.50;9.00;;;;;;;5.07;65.66;97389.31;2064581;28;20673;-68
2022/03/28 01:22:42;;;;;;;22.20;10.98;;;;;;;5.07;65.93;97387.56;2065029;28;20206;-67
2022/03/28 01:23:44;;;;;;;21.15;10.30;;;;;;;5.00;65.92;97386.09;2064981;28;20201;-67
2022/03/28 01:24:47;;;;;;;21.52;10.48;;;;;;;4.99;66.10;97384.38;2064986;28;20202;-67
2022/03/28 01:25:51;;;;;;;29.88;12.45;;;;;;;4.88;66.06;97376.97;2064548;28;20233;-67
2022/03/28 01:26:53;;;;;;;23.13;10.07;;;;;;;4.90;66.07;97384.69;2065015;28;20838;-67
2022/03/28 01:27:56;;;;;;;22.23;11.15;;;;;;;4.86;66.54;97394.34;2065040;28;20201;-67
2022/03/28 01:28:57;;;;;;;18.33;9.50;;;;;;;4.81;66.77;97385.84;2064956;28;20201;-68
2022/03/28 01:29:59;;;;;;;17.30;8.65;;;;;;;4.73;67.26;97382.66;2065202;28;20202;-68
2022/03/28 01:31:00;;;;;;;19.80;9.05;;;;;;;4.70;67.37;97383.59;2064803;28;20226;-67
2022/03/28 01:32:02;;;;;;;18.85;9.02;;;;;;;4.75;66.94;97380.88;2065076;28;20282;-67
2022/03/28 01:33:04;;;;;;;18.60;8.95;;;;;;;4.72;67.03;97381.81;2064810;28;20198;-68
2022/03/28 01:34:06;;;;;;;19.10;8.73;;;;;;;4.67;66.89;97378.53;2063315;28;20677;-67
2022/03/28 01:35:07;;;;;;;26.75;9.95;;;;;;;4.61;67.17;97380.47;2064976;28;20202;-67
2022/03/28 01:36:09;;;;;;;17.73;9.35;;;;;;;4.62;67.24;97379.56;2064425;28;20232;-68
2022/03/28 01:37:10;;;;;;;18.90;9.18;;;;;;;4.60;67.21;97371.00;2065042;28;20726;-67
2022/03/28 01:38:14;;;;;;;22.00;9.43;;;;;;;4.62;67.16;97385.59;2064930;28;20206;-67
2022/03/28 01:39:19;;;;;;;13.70;8.32;;;;;;;4.49;67.38;97371.34;2064602;28;20203;-67
2022/03/28 01:40:21;;;;;;;19.20;9.38;;;;;;;4.52;67.60;97377.25;2063433;28;20289;-68
2022/03/28 01:41:23;;;;;;;34.40;9.63;;;;;;;4.55;67.49;97377.19;2065153;28;20209;-67
2022/03/28 01:42:24;;;;;;;20.48;8.52;;;;;;;4.54;67.43;97380.66;2065022;28;20210;-68
2022/03/28 01:43:26;;;;;;;15.55;7.82;;;;;;;4.59;66.99;97380.53;2064952;28;20211;-67
2022/03/28 01:44:28;;;;;;;22.30;9.25;;;;;;;4.56;67.19;97375.41;2064569;28;20199;-68
2022/03/28 01:45:29;;;;;;;19.88;8.57;;;;;;;4.58;67.13;97377.97;2064912;28;20198;-68
2022/03/28 01:46:38;;;;;;;19.02;8.77;;;;;;;4.53;67.16;97371.19;2064894;28;20205;-67
2022/03/28 01:47:40;;;;;;;19.23;9.65;;;;;;;4.46;67.50;97374.88;2064961;28;20332;-68
2022/03/28 01:48:42;;;;;;;20.92;9.32;;;;;;;4.45;67.49;97373.19;2064906;28;20553;-68
2022/03/28 01:49:43;;;;;;;23.73;8.90;;;;;;;4.52;67.29;97373.84;2064007;28;20205;-68
2022/03/28 01:50:45;;;;;;;20.90;8.27;;;;;;;4.37;67.45;97369.97;2063704;28;20235;-68
2022/03/28 01:51:47;;;;;;;16.25;8.55;;;;;;;4.34;67.49;97370.91;2064816;28;20198;-68
2022/03/28 01:52:49;;;;;;;22.50;9.90;;;;;;;4.37;67.49;97362.19;2064719;28;20206;-67
2022/03/28 01:53:50;;;;;;;17.13;9.68;;;;;;;4.49;67.10;97373.94;2064522;28;20201;-68
2022/03/28 01:54:52;;;;;;;25.08;7.90;;;;;;;4.50;66.79;97365.25;2064900;28;20657;-68
2022/03/28 01:55:53;;;;;;;16.70;7.97;;;;;;;4.41;66.67;97365.53;2064496;28;20230;-68
2022/03/28 01:56:55;;;;;;;22.45;9.90;;;;;;;4.29;66.96;97362.47;2064960;28;20206;-67
2022/03/28 01:57:57;;;;;;;21.65;8.80;;;;;;;4.35;66.96;97366.56;2064897;28;20198;-68
2022/03/28 01:58:58;;;;;;;19.33;8.77;;;;;;;4.40;66.76;97362.09;2064947;28;20325;-67
2022/03/28 02:01:21;;;;;;;13.90;8.07;;;;;;;4.37;66.68;97364.78;2063184;28;20238;-68
2022/03/28 02:02:23;;;;;;;26.77;8.38;;;;;;;4.26;66.94;97359.09;2065067;28;20230;-68
2022/03/28 02:03:25;;;;;;;13.20;7.35;;;;;;;4.27;66.99;97360.78;2064936;28;20218;-67
2022/03/28 02:04:26;;;;;;;15.90;8.80;;;;;;;4.25;67.07;97362.59;2065023;28;20314;-67
2022/03/28 02:05:28;;;;;;;16.88;8.48;;;;;;;4.31;66.86;97360.66;2064665;28;20210;-67
2022/03/28 02:06:32;;;;;;;19.90;7.18;;;;;;;4.36;66.84;97369.13;2064836;28;20195;-67
2022/03/28 02:07:35;;;;;;;20.50;8.80;;;;;;;4.31;66.89;97364.97;2064163;28;20199;-67
2022/03/28 02:08:37;;;;;;;18.10;8.40;;;;;;;4.20;67.52;97356.72;2064855;28;20190;-68
2022/03/28 02:09:38;;;;;;;18.38;8.82;;;;;;;4.32;67.23;97356.31;2064720;28;20202;-68
2022/03/28 02:10:39;;;;;;;18.08;8.27;;;;;;;4.31;66.87;97354.59;2064470;28;20230;-68
2022/03/28 02:11:41;;;;;;;25.65;8.55;;;;;;;4.29;67.03;97356.41;2063907;28;20765;-67
2022/03/28 02:12:43;;;;;;;21.20;8.38;;;;;;;4.21;67.37;97346.25;2064954;28;20195;-67
2022/03/28 02:13:45;;;;;;;15.45;8.38;;;;;;;4.27;66.93;97347.81;2063660;28;20191;-67
2022/03/28 02:14:46;;;;;;;15.93;8.70;;;;;;;4.35;66.90;97346.69;2064953;28;20753;-68
2022/03/28 02:15:48;;;;;;;16.20;8.10;;;;;;;4.35;67.16;97354.47;2064348;28;20226;-67
2022/03/28 02:16:49;;;;;;;18.17;9.00;;;;;;;4.29;67.38;97351.22;2064852;28;20738;-67
2022/03/28 02:17:51;;;;;;;19.75;9.55;;;;;;;4.28;67.09;97350.38;2064891;28;20221;-67
2022/03/28 02:18:53;;;;;;;16.98;9.32;;;;;;;4.19;67.69;97352.41;2064837;28;20194;-67
2022/03/28 02:19:54;;;;;;;17.95;9.07;;;;;;;4.29;67.58;97353.81;2064659;28;20213;-67
2022/03/28 02:20:56;;;;;;;16.48;8.65;;;;;;;4.35;67.16;97346.69;2064055;28;20233;-67
2022/03/28 02:21:57;;;;;;;23.90;9.15;;;;;;;4.25;67.41;97339.25;2062747;28;20203;-67
2022/03/28 02:22:58;;;;;;;19.75;8.65;;;;;;;4.30;67.22;97348.59;2064754;28;20205;-67
2022/03/28 02:24:00;;;;;;;26.08;9.70;;;;;;;4.28;67.47;97350.38;2064754;28;20195;-67
2022/03/28 02:25:03;;;;;;;24.33;9.40;;;;;;;4.15;68.21;97338.69;2064817;28;20205;-67
2022/03/28 02:26:07;;;;;;;16.60;8.65;;;;;;;4.18;68.12;97346.38;2064391;28;20844;-67
2022/03/28 02:27:09;;;;;;;15.13;8.43;;;;;;;4.20;68.05;97346.34;2064705;28;20662;-67
2022/03/28 02:28:11;;;;;;;15.65;9.10;;;;;;;4.22;67.94;97341.94;2064859;28;20202;-68
2022/03/28 02:29:13;;;;;;;19.10;9.25;;;;;;;4.33;67.46;97337.25;2064900;28;20522;-67
2022/03/28 02:30:15;;;;;;;19.15;9.80;;;;;;;4.25;67.78;97334.06;2063190;28;20745;-66
2022/03/28 02:31:16;;;;;;;18.80;8.60;;;;;;;4.15;67.82;97333.50;2064362;28;20237;-68
2022/03/28 02:32:18;;;;;;;15.85;8.55;;;;;;;4.24;67.75;97338.41;2064859;28;20348;-67
2022/03/28 02:33:20;;;;;;;18.38;9.00;;;;;;;4.11;67.97;97337.09;2064978;28;20205;-67
2022/03/28 02:34:22;;;;;;;17.08;8.95;;;;;;;4.06;68.30;97339.00;2064872;28;20194;-68
2022/03/28 02:35:24;;;;;;;18.88;8.88;;;;;;;4.06;68.28;97333.81;2064349;28;20205;-67
2022/03/28 02:36:25;;;;;;;20.65;9.35;;;;;;;4.04;68.28;97331.25;2064604;28;20203;-68
2022/03/28 02:37:27;;;;;;;23.27;10.40;;;;;;;3.92;68.74;97336.78;2064717;28;20202;-68
2022/03/28 02:38:28;;;;;;;21.38;10.00;;;;;;;3.82;69.03;97333.63;2064695;28;20198;-69
2022/03/28 02:39:30;;;;;;;17.50;8.23;;;;;;;3.97;68.50;97335.75;2064584;28;20532;-68
2022/03/28 02:40:32;;;;;;;17.05;8.65;;;;;;;3.98;68.11;97326.28;2064429;28;20198;-66
2022/03/28 02:41:33;;;;;;;19.17;9.90;;;;;;;3.85;68.32;97330.13;2064973;28;20197;-67
2022/03/28 02:42:35;;;;;;;15.57;8.02;;;;;;;3.80;68.21;97334.59;2064704;28;20340;-68
2022/03/28 02:43:37;;;;;;;17.73;9.23;;;;;;;3.78;67.76;97333.78;2064677;28;20221;-67
2022/03/28 02:44:38;;;;;;;22.02;8.27;;;;;;;3.78;67.47;97332.03;2064969;28;20646;-68
2022/03/28 02:45:40;;;;;;;15.60;7.55;;;;;;;3.73;67.82;97327.00;2064239;28;20237;-67
2022/03/28 02:46:42;;;;;;;15.98;7.82;;;;;;;3.74;67.98;97327.84;2064785;28;20222;-67
2022/03/28 02:47:43;;;;;;;16.48;8.40;;;;;;;3.69;68.20;97329.75;2064883;28;20194;-68
2022/03/28 02:48:45;;;;;;;23.13;10.20;;;;;;;3.68;68.45;97326.28;2064982;28;20209;-67
2022/03/28 02:49:46;;;;;;;16.90;9.05;;;;;;;3.68;68.58;97328.03;2064524;28;20201;-67
2022/03/28 02:50:49;;;;;;;18.77;8.65;;;;;;;3.72;68.48;97329.63;2064547;28;20665;-67
2022/03/28 02:51:50;;;;;;;22.73;9.95;;;;;;;3.64;68.57;97322.09;2063409;28;20547;-67
2022/03/28 02:52:52;;;;;;;18.10;9.10;;;;;;;3.70;68.33;97323.66;2064872;28;20191;-68
2022/03/28 02:53:53;;;;;;;18.67;8.43;;;;;;;3.69;68.02;97325.41;2064817;28;20198;-67
2022/03/28 02:54:55;;;;;;;16.63;8.88;;;;;;;3.70;67.84;97321.91;2065011;28;20198;-67
2022/03/28 02:55:58;;;;;;;23.33;9.30;;;;;;;3.65;68.25;97318.63;2064400;28;20595;-67
2022/03/28 02:57:00;;;;;;;17.17;8.70;;;;;;;3.61;68.42;97311.84;2064284;28;20241;-67
2022/03/28 02:58:02;;;;;;;22.15;8.68;;;;;;;3.66;68.15;97317.72;2064756;28;20237;-67
2022/03/28 02:59:03;;;;;;;14.57;8.00;;;;;;;3.67;67.87;97318.56;2064911;28;20210;-67
2022/03/28 03:00:10;;;;;;;19.75;8.65;;;;;;;3.61;67.96;97319.59;2065388;28;20412;-67
2022/03/28 03:01:12;;;;;;;16.48;8.20;;;;;;;3.59;68.23;97323.97;2063018;28;20554;-68
2022/03/28 03:02:14;;;;;;;16.55;8.35;;;;;;;3.56;68.30;97321.47;2064556;28;20202;-67
2022/03/28 03:03:15;;;;;;;14.73;7.57;;;;;;;3.43;68.72;97318.41;2065221;28;20236;-67
2022/03/28 03:04:17;;;;;;;16.40;8.13;;;;;;;3.44;68.90;97314.06;2065981;28;20214;-67
2022/03/28 03:05:18;;;;;;;20.52;9.20;;;;;;;3.48;68.95;97320.84;2064441;28;20201;-67
2022/03/28 03:06:20;;;;;;;18.25;7.82;;;;;;;3.61;68.29;97314.41;2066017;28;20218;-67
2022/03/28 03:07:21;;;;;;;20.90;9.13;;;;;;;3.61;68.68;97316.13;2066207;28;20209;-67
2022/03/28 03:08:22;;;;;;;20.45;9.23;;;;;;;3.55;68.40;97318.03;2064854;28;20203;-67
2022/03/28 03:09:24;;;;;;;19.75;10.02;;;;;;;3.42;68.54;97310.66;2064781;28;20729;-67
2022/03/28 03:10:26;;;;;;;21.27;8.02;;;;;;;3.35;68.96;97303.09;2064901;28;20249;-67
2022/03/28 03:11:28;;;;;;;17.05;8.38;;;;;;;3.45;68.67;97307.97;2073004;28;20252;-67
2022/03/28 03:12:30;;;;;;;19.30;9.00;;;;;;;3.43;68.86;97310.63;2072147;28;20637;-68
2022/03/28 03:13:32;;;;;;;15.90;7.90;;;;;;;3.50;68.47;97308.69;2065553;28;20536;-67
2022/03/28 03:14:34;;;;;;;12.52;8.38;;;;;;;3.39;68.91;97305.56;2065866;28;20199;-67
2022/03/28 03:15:36;;;;;;;22.40;8.98;;;;;;;3.34;69.20;97298.78;2065375;28;20206;-67
2022/03/28 03:16:40;;;;;;;21.15;10.18;;;;;;;3.37;69.31;97308.19;2065762;28;20202;-67
2022/03/28 03:17:42;;;;;;;20.45;8.90;;;;;;;3.37;69.28;97303.00;2065585;28;20202;-67
2022/03/28 03:18:43;;;;;;;20.55;8.68;;;;;;;3.42;68.94;97313.25;2065724;28;20676;-67
2022/03/28 03:19:45;;;;;;;13.90;8.52;;;;;;;3.29;69.34;97307.56;2065782;28;20700;-67
2022/03/28 03:20:46;;;;;;;23.20;9.68;;;;;;;3.33;69.34;97306.59;2065122;28;20670;-67
2022/03/28 03:21:48;;;;;;;14.98;7.95;;;;;;;3.31;69.72;97306.66;2065680;28;20203;-67
2022/03/28 03:22:49;;;;;;;17.38;9.45;;;;;;;3.38;69.46;97309.06;2065081;28;20756;-67
2022/03/28 03:23:51;;;;;;;21.55;8.80;;;;;;;3.35;69.59;97309.97;2065666;28;20614;-68
2022/03/28 03:24:53;;;;;;;20.05;9.40;;;;;;;3.31;69.68;97308.38;2065755;28;20574;-67
2022/03/28 03:25:54;;;;;;;25.35;10.55;;;;;;;3.25;69.90;97306.81;2065163;28;20226;-68
2022/03/28 03:26:56;;;;;;;19.05;9.13;;;;;;;3.31;69.40;97304.06;2065628;28;20225;-67
2022/03/28 03:27:57;;;;;;;14.80;7.93;;;;;;;3.42;69.10;97305.50;2065803;28;20282;-68
2022/03/28 03:28:59;;;;;;;18.67;9.10;;;;;;;3.37;68.84;97310.78;2065078;28;20213;-68
2022/03/28 03:30:00;;;;;;;18.75;8.65;;;;;;;3.42;68.75;97302.91;2064913;28;20194;-67
2022/03/28 03:31:02;;;;;;;18.05;8.80;;;;;;;3.46;68.68;97301.91;2065685;28;20234;-67
2022/03/28 03:32:04;;;;;;;22.15;9.98;;;;;;;3.38;68.84;97299.53;2065812;28;20206;-67
2022/03/28 03:33:07;;;;;;;21.65;9.45;;;;;;;3.41;68.72;97301.19;2066329;28;20214;-67
2022/03/28 03:34:08;;;;;;;18.77;8.05;;;;;;;3.47;68.52;97298.41;2066140;28;20202;-67
2022/03/28 03:35:10;;;;;;;17.83;8.05;;;;;;;3.44;68.48;97294.19;2064561;28;20194;-68
2022/03/28 03:36:11;;;;;;;22.20;9.32;;;;;;;3.29;69.01;97295.50;2065168;28;20241;-66
2022/03/28 03:37:13;;;;;;;17.88;8.95;;;;;;;3.32;68.86;97294.56;2065643;28;20206;-67
2022/03/28 03:38:14;;;;;;;22.10;9.38;;;;;;;3.22;69.19;97298.31;2065320;28;20654;-68
2022/03/28 03:39:16;;;;;;;17.00;9.15;;;;;;;3.21;69.04;97301.78;2065334;28;20202;-68
2022/03/28 03:40:17;;;;;;;18.67;9.77;;;;;;;3.24;69.02;97287.00;2064966;28;20205;-68
2022/03/28 03:41:19;;;;;;;17.40;9.07;;;;;;;3.34;68.92;97296.19;2064665;28;20835;-67
2022/03/28 03:42:20;;;;;;;19.73;9.55;;;;;;;3.33;69.05;97301.41;2065045;28;20199;-68
2022/03/28 03:43:22;;;;;;;19.42;9.80;;;;;;;3.29;69.58;97298.09;2064943;28;20198;-67
2022/03/28 03:44:23;;;;;;;23.17;9.40;;;;;;;3.20;69.63;97293.16;2064893;28;20210;-67
2022/03/28 03:45:25;;;;;;;18.52;8.68;;;;;;;3.18;69.82;97292.34;2063830;28;20202;-68
2022/03/28 03:46:26;;;;;;;15.90;8.02;;;;;;;3.30;69.55;97292.00;2064430;28;20202;-68
2022/03/28 03:47:36;;;;;;;16.23;8.20;;;;;;;3.24;69.43;97292.19;2064068;28;20858;-68
2022/03/28 03:48:38;;;;;;;18.30;8.82;;;;;;;3.26;69.46;97286.97;2064476;28;20194;-68
2022/03/28 03:49:39;;;;;;;16.38;9.05;;;;;;;3.22;69.64;97282.78;2064297;28;20202;-67
2022/03/28 03:50:41;;;;;;;22.15;8.80;;;;;;;3.30;69.50;97292.00;2063752;28;20218;-68
2022/03/28 03:51:43;;;;;;;15.80;8.57;;;;;;;3.22;69.60;97287.94;2063910;28;20213;-68
2022/03/28 03:52:44;;;;;;;21.25;9.32;;;;;;;3.18;70.10;97292.34;2064200;28;20639;-68
2022/03/28 03:53:46;;;;;;;18.42;9.27;;;;;;;3.27;69.91;97291.22;2064008;28;20202;-68
2022/03/28 03:54:47;;;;;;;18.83;8.48;;;;;;;3.21;70.15;97296.59;2064276;28;20186;-67
2022/03/28 03:55:49;;;;;;;21.92;10.35;;;;;;;3.08;70.63;97293.50;2063962;28;20607;-68
2022/03/28 03:56:50;;;;;;;20.92;9.20;;;;;;;3.07;70.48;97284.03;2064061;28;20197;-68
2022/03/28 03:57:52;;;;;;;17.60;8.90;;;;;;;2.92;70.56;97291.34;2064064;28;20194;-68
2022/03/28 03:58:56;;;;;;;15.57;8.85;;;;;;;2.74;70.37;97290.09;2063972;28;20202;-68
2022/03/28 03:59:58;;;;;;;20.70;8.68;;;;;;;2.75;70.25;97293.53;2063695;28;20209;-67
2022/03/28 04:01:04;;;;;;;19.75;8.18;;;;;;;2.84;70.27;97282.91;2063023;28;20286;-68
2022/03/28 04:02:05;;;;;;;18.75;9.30;;;;;;;2.88;70.32;97289.72;2063975;28;20718;-68
2022/03/28 04:03:07;;;;;;;17.60;8.68;;;;;;;2.87;70.33;97295.78;2062103;28;20194;-68
2022/03/28 04:04:12;;;;;;;15.75;8.20;;;;;;;2.94;70.14;97284.38;2063915;28;20862;-68
2022/03/28 04:05:14;;;;;;;19.85;8.73;;;;;;;2.92;70.42;97291.34;2063935;28;20202;-68
2022/03/28 04:06:15;;;;;;;18.08;9.98;;;;;;;2.89;70.30;97296.59;2063814;28;20265;-68
2022/03/28 04:07:17;;;;;;;15.20;8.40;;;;;;;2.89;70.26;97296.59;2064062;28;20202;-68
2022/03/28 04:08:19;;;;;;;15.55;7.68;;;;;;;2.86;70.45;97286.34;2064321;28;20203;-67
2022/03/28 04:09:20;;;;;;;16.77;8.50;;;;;;;2.94;70.46;97292.16;2063649;28;20203;-68
2022/03/28 04:10:22;;;;;;;18.40;8.88;;;;;;;2.71;70.32;97291.91;2063822;28;20234;-67
2022/03/28 04:11:24;;;;;;;19.15;9.15;;;;;;;2.73;70.28;97287.56;2064448;28;20203;-68
2022/03/28 04:12:26;;;;;;;15.68;8.93;;;;;;;2.66;70.97;97298.94;2064444;28;20202;-68
2022/03/28 04:13:27;;;;;;;18.08;9.38;;;;;;;2.74;70.48;97290.09;2064343;28;20210;-68
2022/03/28 04:14:30;;;;;;;17.20;9.30;;;;;;;2.81;70.53;97293.38;2065707;28;20191;-68
2022/03/28 04:15:31;;;;;;;20.13;8.32;;;;;;;2.67;70.62;97287.72;2065393;28;20198;-68
2022/03/28 04:16:34;;;;;;;18.48;8.57;;;;;;;2.73;70.67;97295.31;2065771;28;20198;-67
2022/03/28 04:17:43;;;;;;;19.45;9.30;;;;;;;2.71;70.89;97300.53;2064991;28;20282;-68
2022/03/28 04:18:44;;;;;;;26.08;8.80;;;;;;;2.80;70.50;97294.25;2065850;28;20194;-68
2022/03/28 04:19:46;;;;;;;19.45;9.07;;;;;;;2.89;70.35;97293.16;2065384;28;20202;-68
2022/03/28 04:20:47;;;;;;;15.55;8.45;;;;;;;2.94;70.02;97289.56;2065149;28;20580;-67
2022/03/28 04:21:49;;;;;;;19.25;8.23;;;;;;;2.98;69.79;97290.34;2065668;28;20218;-67
2022/03/28 04:22:51;;;;;;;17.60;8.38;;;;;;;2.99;69.86;97294.59;2065543;28;20195;-68
2022/03/28 04:23:52;;;;;;;17.50;9.32;;;;;;;3.03;69.72;97285.03;2065645;28;20207;-67
2022/03/28 04:24:54;;;;;;;27.73;9.40;;;;;;;2.94;69.94;97294.75;2065637;28;20214;-68
2022/03/28 04:25:55;;;;;;;15.00;8.35;;;;;;;2.92;69.98;97293.06;2065059;28;20365;-68
2022/03/28 04:26:57;;;;;;;17.27;9.30;;;;;;;2.90;70.26;97292.25;2065272;28;20209;-68
2022/03/28 04:27:59;;;;;;;27.63;9.38;;;;;;;2.85;70.04;97287.22;2065254;28;20209;-68
2022/03/28 04:29:00;;;;;;;25.67;9.98;;;;;;;2.93;70.16;97293.03;2065641;28;20205;-68
2022/03/28 04:30:10;;;;;;;22.75;9.35;;;;;;;2.71;70.78;97290.19;2065586;28;20214;-68
2022/03/28 04:31:13;;;;;;;19.55;9.45;;;;;;;2.67;71.10;97283.38;2063995;28;20584;-67
2022/03/28 04:32:14;;;;;;;18.27;9.50;;;;;;;2.70;70.97;97285.88;2065384;28;20226;-67
2022/03/28 04:33:16;;;;;;;20.05;10.07;;;;;;;2.69;71.08;97285.94;2064643;28;20194;-68
2022/03/28 04:34:17;;;;;;;18.10;9.57;;;;;;;2.81;70.65;97284.75;2064710;28;20214;-68
2022/03/28 04:35:19;;;;;;;17.42;9.10;;;;;;;2.69;70.90;97281.59;2065294;28;20297;-68
2022/03/28 04:36:22;;;;;;;23.20;10.32;;;;;;;2.73;70.91;97280.63;2065047;28;20218;-68
2022/03/28 04:37:23;;;;;;;32.78;9.88;;;;;;;2.72;70.67;97289.25;2064634;28;20199;-67
2022/03/28 04:38:25;;;;;;;20.88;10.80;;;;;;;2.71;70.95;97287.59;2065109;28;20203;-68
2022/03/28 04:39:26;;;;;;;22.77;10.13;;;;;;;2.71;71.05;97282.41;2065599;28;20219;-68
2022/03/28 04:40:28;;;;;;;21.83;8.77;;;;;;;2.68;71.68;97287.66;2065603;28;20532;-67
2022/03/28 04:41:29;;;;;;;20.00;9.45;;;;;;;2.75;71.08;97288.34;2065505;28;20214;-67
2022/03/28 04:42:31;;;;;;;17.50;8.82;;;;;;;2.74;71.22;97284.94;2065280;28;20745;-67
2022/03/28 04:43:33;;;;;;;22.48;10.27;;;;;;;2.74;71.38;97287.53;2065363;28;20198;-68
2022/03/28 04:44:35;;;;;;;16.73;9.23;;;;;;;2.79;71.15;97286.53;2065128;28;20840;-68
2022/03/28 04:45:36;;;;;;;16.67;9.38;;;;;;;2.61;71.78;97274.91;2064988;28;20199;-68
2022/03/28 04:46:38;;;;;;;21.67;9.25;;;;;;;2.68;71.71;97285.06;2065355;28;20637;-67
2022/03/28 04:47:40;;;;;;;20.23;9.63;;;;;;;2.70;71.30;97280.69;2065175;28;20206;-68
2022/03/28 04:48:42;;;;;;;18.83;9.10;;;;;;;2.70;71.01;97285.88;2065287;28;20237;-68
2022/03/28 04:49:43;;;;;;;24.92;10.27;;;;;;;2.71;71.29;97282.41;2065282;28;20557;-67
2022/03/28 04:50:46;;;;;;;18.67;8.98;;;;;;;2.82;70.73;97282.09;2064780;28;20230;-68
2022/03/28 04:51:47;;;;;;;22.63;9.73;;;;;;;2.81;71.16;97285.59;2065394;28;20204;-68
2022/03/28 04:52:49;;;;;;;17.67;8.38;;;;;;;2.88;70.79;97291.44;2065175;28;20198;-68
2022/03/28 04:53:50;;;;;;;19.90;8.88;;;;;;;2.92;70.48;97288.75;2065354;28;20210;-68